Time;durP1;ratioP1;P1;durP2;ratioP2;P2;SDS_P1;SDS_P2;PMS_P1;PMS_P2;Temp;Humidity;BMP_temperature;BMP_pressure;BME280_temperature;BME280_humidity;BME280_pressure;Samples;Min_cycle;Max_cycle;Signal;HPM_P1;HPM_P2
2022/12/03 00:01:17;;;;;;;20.27;15.30;;;1.10;99.90;;;;;;5042411;28;20495;-57
2022/12/03 00:03:44;;;;;;;21.37;16.17;;;1.20;99.90;;;;;;5041728;28;20479;-58
2022/12/03 00:06:14;;;;;;;20.93;15.87;;;1.10;99.90;;;;;;5042058;28;20448;-59
2022/12/03 00:08:44;;;;;;;21.60;16.00;;;1.10;99.90;;;;;;5041737;28;20476;-56
2022/12/03 00:11:12;;;;;;;20.63;15.30;;;1.10;99.90;;;;;;5042257;28;20525;-59
2022/12/03 00:13:42;;;;;;;19.80;14.20;;;1.10;99.90;;;;;;5042472;28;20516;-59
2022/12/03 00:16:19;;;;;;;20.80;15.67;;;1.10;99.90;;;;;;5042540;28;20520;-59
2022/12/03 00:18:49;;;;;;;20.27;16.00;;;1.10;99.90;;;;;;5041375;28;20469;-58
2022/12/03 00:21:16;;;;;;;20.07;14.90;;;1.10;99.90;;;;;;5042091;28;20891;-58
2022/12/03 00:23:46;;;;;;;17.43;13.13;;;1.10;99.90;;;;;;5041445;28;20512;-59
2022/12/03 00:26:16;;;;;;;22.63;14.83;;;1.10;99.90;;;;;;5042148;28;20470;-59
2022/12/03 00:28:43;;;;;;;19.33;14.33;;;1.10;99.90;;;;;;5041801;28;20441;-59
2022/12/03 00:31:13;;;;;;;19.33;14.60;;;1.10;99.90;;;;;;5041658;28;20446;-58
2022/12/03 00:33:44;;;;;;;24.47;16.90;;;1.20;99.90;;;;;;5040999;28;20441;-58
2022/12/03 00:36:20;;;;;;;18.60;14.67;;;1.10;99.90;;;;;;5041815;28;20736;-59
2022/12/03 00:38:47;;;;;;;20.97;15.23;;;1.10;99.90;;;;;;5041790;28;20462;-58
2022/12/03 00:41:14;;;;;;;18.90;14.80;;;1.20;99.90;;;;;;5041380;28;20470;-57
2022/12/03 00:43:44;;;;;;;19.87;15.17;;;1.10;99.90;;;;;;5041751;28;20494;-57
2022/12/03 00:46:30;;;;;;;19.27;14.07;;;1.10;99.90;;;;;;5041473;28;20440;-58
2022/12/03 00:48:58;;;;;;;20.70;14.90;;;1.10;99.90;;;;;;5041492;28;20471;-58
2022/12/03 00:51:28;;;;;;;19.43;14.30;;;1.20;99.90;;;;;;5041667;28;20776;-59
2022/12/03 00:53:58;;;;;;;20.13;13.80;;;1.10;99.90;;;;;;5040035;28;20922;-57
2022/12/03 00:56:34;;;;;;;21.83;15.70;;;1.20;99.90;;;;;;5040585;28;20444;-59
2022/12/03 00:59:01;;;;;;;16.70;13.70;;;1.20;99.90;;;;;;5039333;28;20434;-57
2022/12/03 01:01:28;;;;;;;21.80;15.30;;;1.10;99.90;;;;;;5040488;28;20466;-58
2022/12/03 01:04:01;;;;;;;20.83;14.83;;;1.10;99.90;;;;;;5040028;28;20495;-59
2022/12/03 01:06:35;;;;;;;20.67;14.60;;;1.20;99.90;;;;;;5039515;28;20872;-59
2022/12/03 01:09:03;;;;;;;22.00;15.30;;;1.20;99.90;;;;;;5044218;28;20461;-58
2022/12/03 01:11:40;;;;;;;18.43;14.10;;;1.10;99.90;;;;;;5059263;28;20437;-59
2022/12/03 01:14:21;;;;;;;19.90;14.73;;;1.10;99.90;;;;;;5059228;28;20843;-59
2022/12/03 01:16:49;;;;;;;19.70;15.70;;;1.20;99.90;;;;;;5059892;28;20461;-59
2022/12/03 01:19:18;;;;;;;19.60;14.67;;;1.20;99.90;;;;;;5060156;28;20471;-57
2022/12/03 01:21:51;;;;;;;21.33;14.70;;;1.20;99.90;;;;;;5060467;28;20441;-58
2022/12/03 01:24:25;;;;;;;22.87;15.10;;;1.20;99.90;;;;;;5058342;28;20501;-59
2022/12/03 01:26:54;;;;;;;21.13;15.37;;;1.10;99.90;;;;;;5059134;28;20440;-59
2022/12/03 01:29:21;;;;;;;19.73;14.57;;;1.10;99.90;;;;;;5059482;28;20905;-59
2022/12/03 01:34:42;;;;;;;18.47;14.30;;;1.10;99.90;;;;;;5059303;28;20790;-59
2022/12/03 01:37:10;;;;;;;18.93;14.07;;;1.20;99.90;;;;;;5058568;28;20437;-59
2022/12/03 01:39:38;;;;;;;19.60;13.50;;;1.10;99.90;;;;;;5060498;28;20439;-59
2022/12/03 01:42:06;;;;;;;19.90;15.17;;;1.10;99.90;;;;;;5060100;28;20437;-59
2022/12/03 01:44:35;;;;;;;22.73;16.10;;;1.20;99.90;;;;;;5060050;28;20479;-59
2022/12/03 01:47:05;;;;;;;18.93;14.20;;;1.10;99.90;;;;;;5060376;28;20444;-57
2022/12/03 01:49:42;;;;;;;20.13;14.93;;;1.10;99.90;;;;;;5060411;28;20443;-59
2022/12/03 01:52:23;;;;;;;20.50;15.10;;;1.10;99.90;;;;;;5059849;28;20443;-59
2022/12/03 01:54:59;;;;;;;21.13;14.70;;;1.10;99.90;;;;;;5060674;28;20852;-59
2022/12/03 01:57:29;;;;;;;19.77;15.03;;;1.10;99.90;;;;;;5060591;28;20458;-57
2022/12/03 01:59:58;;;;;;;23.23;15.30;;;1.10;99.90;;;;;;5060116;28;20742;-60
2022/12/03 02:02:28;;;;;;;22.33;15.23;;;1.10;99.90;;;;;;5059462;28;20440;-60
2022/12/03 02:05:06;;;;;;;19.47;14.43;;;1.20;99.90;;;;;;5059737;28;20497;-58
2022/12/03 02:07:38;;;;;;;21.77;15.60;;;1.10;99.90;;;;;;5059901;28;20436;-59
2022/12/03 02:10:06;;;;;;;20.50;14.60;;;1.20;99.90;;;;;;5060011;28;20488;-59
2022/12/03 02:12:40;;;;;;;20.13;15.13;;;1.20;99.90;;;;;;5059974;28;20906;-57
2022/12/03 02:15:11;;;;;;;20.47;15.40;;;1.10;99.90;;;;;;5059360;28;20462;-59
2022/12/03 02:17:39;;;;;;;21.13;14.40;;;1.20;99.90;;;;;;5060120;28;20889;-58
2022/12/03 02:20:11;;;;;;;21.40;14.50;;;1.20;99.90;;;;;;5059528;28;20440;-59
2022/12/03 02:22:55;;;;;;;22.97;15.47;;;1.20;99.90;;;;;;5059620;28;20437;-59
2022/12/03 02:25:26;;;;;;;21.70;14.97;;;1.20;99.90;;;;;;5059295;28;20452;-59
2022/12/03 02:27:54;;;;;;;21.60;14.50;;;1.10;99.90;;;;;;5059139;28;20458;-59
2022/12/03 02:30:34;;;;;;;21.73;14.40;;;1.10;99.90;;;;;;5058666;28;20442;-55
2022/12/03 02:33:16;;;;;;;22.50;15.20;;;1.10;99.90;;;;;;5059282;28;20458;-57
2022/12/03 02:35:44;;;;;;;19.30;13.80;;;1.10;99.90;;;;;;5055450;28;20473;-57
2022/12/03 02:38:22;;;;;;;21.90;14.60;;;1.10;99.90;;;;;;5058797;28;20447;-55
2022/12/03 02:41:05;;;;;;;23.93;15.90;;;1.10;99.90;;;;;;5058855;28;20909;-57
2022/12/03 02:43:34;;;;;;;21.13;14.83;;;1.10;99.90;;;;;;5059243;28;20487;-58
2022/12/03 02:46:03;;;;;;;23.33;14.87;;;1.10;99.90;;;;;;5059291;28;20494;-55
2022/12/03 02:48:36;;;;;;;22.40;15.83;;;1.10;99.90;;;;;;5059622;28;20470;-56
2022/12/03 02:51:06;;;;;;;21.87;14.57;;;1.10;99.90;;;;;;5059437;28;20439;-58
2022/12/03 02:53:37;;;;;;;22.40;14.80;;;1.10;99.90;;;;;;5059293;28;20437;-58
2022/12/03 02:56:07;;;;;;;23.77;15.40;;;1.10;99.90;;;;;;5059072;28;20464;-58
2022/12/03 02:58:34;;;;;;;21.80;14.60;;;1.10;99.90;;;;;;5059199;28;20470;-55
2022/12/03 03:01:03;;;;;;;22.27;14.53;;;1.00;99.90;;;;;;5059518;28;20436;-56
2022/12/03 03:03:32;;;;;;;22.37;15.00;;;1.00;99.90;;;;;;5059210;28;20494;-57
2022/12/03 03:06:08;;;;;;;21.90;14.37;;;1.00;99.90;;;;;;5059328;28;20466;-54
2022/12/03 03:08:37;;;;;;;22.57;14.67;;;1.00;99.90;;;;;;5059472;28;20730;-55
2022/12/03 03:11:08;;;;;;;22.10;14.97;;;1.00;99.90;;;;;;5059641;28;20462;-57
2022/12/03 03:13:36;;;;;;;19.20;12.37;;;1.10;99.90;;;;;;5059176;28;20454;-56
2022/12/03 03:16:10;;;;;;;21.43;15.10;;;1.10;99.90;;;;;;5059155;28;20882;-54
2022/12/03 03:18:37;;;;;;;21.90;13.00;;;1.10;99.90;;;;;;5059372;28;20440;-56
2022/12/03 03:21:10;;;;;;;21.10;15.30;;;1.10;99.90;;;;;;5058842;28;20469;-56
2022/12/03 03:23:37;;;;;;;19.77;13.80;;;1.10;99.90;;;;;;5058596;28;20483;-56
2022/12/03 03:26:08;;;;;;;22.63;15.60;;;1.10;99.90;;;;;;5059519;28;20466;-58
2022/12/03 03:28:37;;;;;;;22.30;14.50;;;1.10;99.90;;;;;;5058535;28;20726;-58
2022/12/03 03:31:15;;;;;;;24.70;15.30;;;1.10;99.90;;;;;;5058638;28;20451;-56
2022/12/03 03:33:44;;;;;;;26.77;15.30;;;1.10;99.90;;;;;;5059139;28;20720;-56
2022/12/03 03:36:13;;;;;;;22.77;14.30;;;1.10;99.90;;;;;;5058448;28;20464;-54
2022/12/03 03:38:47;;;;;;;23.57;16.43;;;1.10;99.90;;;;;;5058209;28;20454;-56
2022/12/03 03:41:20;;;;;;;22.40;15.10;;;1.00;99.90;;;;;;5059318;28;20901;-57
2022/12/03 03:43:49;;;;;;;22.40;14.73;;;1.10;99.90;;;;;;5059911;28;20472;-58
2022/12/03 03:46:17;;;;;;;23.40;14.77;;;1.00;99.90;;;;;;5059356;28;20462;-55
2022/12/03 03:48:44;;;;;;;27.60;15.97;;;1.10;99.90;;;;;;5059586;28;20741;-55
2022/12/03 03:51:18;;;;;;;23.00;15.33;;;0.90;99.90;;;;;;5060082;28;20878;-54
2022/12/03 03:53:48;;;;;;;27.90;16.03;;;0.90;99.90;;;;;;5059111;28;20801;-56
2022/12/03 03:56:19;;;;;;;25.50;15.47;;;0.90;99.90;;;;;;5059698;28;20461;-54
2022/12/03 03:58:48;;;;;;;29.73;17.80;;;0.90;99.90;;;;;;5059424;28;20757;-58
2022/12/03 04:01:19;;;;;;;25.20;15.00;;;1.00;99.90;;;;;;5060306;28;20473;-58
2022/12/03 04:03:56;;;;;;;26.03;17.43;;;1.00;99.90;;;;;;5059049;28;20561;-54
2022/12/03 04:06:23;;;;;;;26.90;15.50;;;0.90;99.90;;;;;;5060229;28;20865;-57
2022/12/03 04:08:50;;;;;;;25.90;14.90;;;0.90;99.90;;;;;;5059311;28;20471;-58
2022/12/03 04:14:09;;;;;;;28.13;16.43;;;0.90;99.90;;;;;;5059203;28;20490;-58
2022/12/03 04:16:36;;;;;;;26.63;15.70;;;0.90;99.90;;;;;;5060340;28;20440;-56
2022/12/03 04:19:03;;;;;;;29.83;16.57;;;1.00;99.90;;;;;;5059674;28;20488;-58
2022/12/03 04:24:15;;;;;;;30.43;17.30;;;0.90;99.90;;;;;;5058017;28;20486;-58
2022/12/03 04:29:28;;;;;;;23.23;15.70;;;0.90;99.90;;;;;;5059175;28;20420;-55
2022/12/03 04:37:25;;;;;;;29.77;17.60;;;0.90;99.90;;;;;;5058792;28;20453;-53
2022/12/03 04:39:52;;;;;;;26.10;15.97;;;0.90;99.90;;;;;;5058331;28;20466;-58
2022/12/03 04:42:23;;;;;;;25.90;15.63;;;0.90;99.90;;;;;;5058583;28;20630;-58
2022/12/03 04:44:50;;;;;;;30.20;16.70;;;0.90;99.90;;;;;;5061240;28;20493;-55
2022/12/03 04:47:19;;;;;;;27.83;17.00;;;0.90;99.90;;;;;;5062316;28;20437;-56
2022/12/03 04:49:48;;;;;;;28.03;18.00;;;0.90;99.90;;;;;;5061799;28;20466;-56
2022/12/03 04:52:17;;;;;;;29.07;17.60;;;0.90;99.90;;;;;;5061769;28;20476;-57
2022/12/03 04:54:44;;;;;;;25.87;16.60;;;0.90;99.90;;;;;;5062208;28;20448;-59
2022/12/03 04:57:12;;;;;;;27.37;16.30;;;0.90;99.90;;;;;;5062301;28;20437;-57
2022/12/03 04:59:40;;;;;;;27.53;15.60;;;0.90;99.90;;;;;;5061897;28;20519;-56
2022/12/03 05:02:08;;;;;;;25.33;16.40;;;0.80;99.90;;;;;;5061619;28;20469;-59
2022/12/03 05:04:35;;;;;;;26.60;15.67;;;0.90;99.90;;;;;;5061593;28;20584;-59
2022/12/03 05:07:03;;;;;;;24.60;17.10;;;1.00;99.90;;;;;;5062096;28;20883;-56
2022/12/03 05:09:30;;;;;;;28.87;17.30;;;1.00;99.90;;;;;;5062083;28;20473;-55
2022/12/03 05:11:57;;;;;;;28.93;16.83;;;0.90;99.90;;;;;;5061504;28;20723;-55
2022/12/03 05:14:24;;;;;;;28.30;16.23;;;0.80;99.90;;;;;;5061979;28;20457;-55
2022/12/03 05:16:53;;;;;;;28.00;16.13;;;0.90;99.90;;;;;;5061360;28;20472;-58
2022/12/03 05:19:20;;;;;;;31.07;18.10;;;0.80;99.90;;;;;;5061199;28;20445;-58
2022/12/03 05:21:46;;;;;;;32.10;17.97;;;0.80;99.90;;;;;;5061249;28;20472;-56
2022/12/03 05:24:13;;;;;;;25.27;15.20;;;0.80;99.90;;;;;;5061227;28;20533;-58
2022/12/03 05:26:40;;;;;;;28.80;16.10;;;0.80;99.90;;;;;;5061371;28;20461;-57
2022/12/03 05:29:07;;;;;;;27.20;16.30;;;0.80;99.90;;;;;;5061049;28;20440;-59
2022/12/03 05:31:34;;;;;;;28.17;15.57;;;0.90;99.90;;;;;;5060541;28;20454;-55
2022/12/03 05:34:03;;;;;;;23.33;14.73;;;0.90;99.90;;;;;;5060742;28;20480;-57
2022/12/03 05:36:30;;;;;;;31.90;16.37;;;1.00;99.90;;;;;;5061126;28;20572;-58
2022/12/03 05:38:57;;;;;;;28.77;15.83;;;0.90;99.90;;;;;;5061518;28;20448;-56
2022/12/03 05:44:08;;;;;;;31.43;17.67;;;0.80;99.90;;;;;;5060790;28;20767;-59
2022/12/03 05:46:35;;;;;;;24.60;16.27;;;0.90;99.90;;;;;;5061257;28;20465;-57
2022/12/03 05:49:04;;;;;;;32.23;16.07;;;0.80;99.90;;;;;;5061371;28;20469;-58
2022/12/03 05:51:31;;;;;;;31.20;16.70;;;0.90;99.90;;;;;;5060640;28;20464;-56
2022/12/03 05:54:01;;;;;;;28.40;15.73;;;1.00;99.90;;;;;;5060850;28;20466;-58
2022/12/03 05:56:28;;;;;;;27.53;16.57;;;0.90;99.90;;;;;;5061367;28;20851;-58
2022/12/03 05:58:55;;;;;;;30.23;16.10;;;0.80;99.90;;;;;;5060863;28;20465;-59
2022/12/03 06:01:22;;;;;;;29.10;15.90;;;0.90;99.90;;;;;;5060888;28;20473;-58
2022/12/03 06:03:49;;;;;;;29.77;17.00;;;0.90;99.90;;;;;;5060087;28;20473;-59
2022/12/03 06:06:18;;;;;;;28.47;17.00;;;0.90;99.90;;;;;;5060144;28;20467;-58
2022/12/03 06:08:45;;;;;;;30.03;17.80;;;0.80;99.90;;;;;;5060791;28;20467;-58
2022/12/03 06:11:12;;;;;;;24.97;15.17;;;0.80;99.90;;;;;;5060191;28;20539;-58
2022/12/03 06:13:39;;;;;;;30.53;15.80;;;0.80;99.90;;;;;;5060398;28;20432;-59
2022/12/03 06:16:06;;;;;;;30.67;17.27;;;0.90;99.90;;;;;;5060555;28;20469;-59
2022/12/03 06:18:33;;;;;;;30.03;16.00;;;0.90;99.90;;;;;;5060295;28;20477;-57
2022/12/03 06:21:00;;;;;;;30.07;17.67;;;0.90;99.90;;;;;;5060610;28;20444;-57
2022/12/03 06:23:29;;;;;;;34.60;17.37;;;0.80;99.90;;;;;;5060259;28;20444;-59
2022/12/03 06:25:56;;;;;;;28.20;17.10;;;0.90;99.90;;;;;;5059158;28;20501;-56
2022/12/03 06:28:23;;;;;;;34.53;18.10;;;0.90;99.90;;;;;;5059897;28;20850;-57
2022/12/03 06:30:50;;;;;;;32.03;19.43;;;0.90;99.90;;;;;;5059580;28;20523;-59
2022/12/03 06:33:17;;;;;;;33.33;18.03;;;0.90;99.90;;;;;;5060564;28;20440;-55
2022/12/03 06:35:44;;;;;;;31.67;16.63;;;0.90;99.90;;;;;;5059506;28;20472;-57
2022/12/03 06:38:11;;;;;;;29.33;17.60;;;0.90;99.90;;;;;;5059730;28;20449;-62
2022/12/03 06:40:40;;;;;;;30.30;16.10;;;0.90;99.90;;;;;;5060310;28;20896;-61
2022/12/03 06:43:08;;;;;;;31.73;17.57;;;0.90;99.90;;;;;;5060110;28;20468;-61
2022/12/03 06:45:35;;;;;;;32.83;17.47;;;0.90;99.90;;;;;;5060174;28;20519;-61
2022/12/03 06:48:02;;;;;;;32.30;17.87;;;0.80;99.90;;;;;;5059339;28;20454;-61
2022/12/03 06:50:29;;;;;;;30.00;16.87;;;0.80;99.90;;;;;;5059623;28;20774;-61
2022/12/03 06:52:56;;;;;;;29.73;16.87;;;0.90;99.90;;;;;;5060184;28;20466;-61
2022/12/03 06:55:23;;;;;;;31.10;17.70;;;0.90;99.90;;;;;;5059523;28;20461;-61
2022/12/03 06:57:52;;;;;;;32.23;17.50;;;0.80;99.90;;;;;;5059875;28;20467;-61
2022/12/03 07:00:20;;;;;;;33.20;17.30;;;0.80;99.90;;;;;;5059910;28;20476;-61
2022/12/03 07:02:47;;;;;;;34.50;18.30;;;0.80;99.90;;;;;;5059971;28;20451;-61
2022/12/03 07:05:14;;;;;;;29.43;17.63;;;0.80;99.90;;;;;;5059295;28;20472;-61
2022/12/03 07:07:41;;;;;;;31.40;17.20;;;0.80;99.90;;;;;;5058264;28;20443;-61
2022/12/03 07:10:09;;;;;;;28.90;17.10;;;0.90;99.90;;;;;;5059546;28;20894;-61
2022/12/03 07:12:36;;;;;;;39.17;18.47;;;0.90;99.90;;;;;;5058831;28;20462;-61
2022/12/03 07:15:06;;;;;;;28.13;16.00;;;0.90;99.90;;;;;;5059265;28;20466;-61
2022/12/03 07:17:33;;;;;;;27.03;15.00;;;0.90;99.90;;;;;;5059226;28;20460;-61
2022/12/03 07:20:00;;;;;;;31.73;15.23;;;0.80;99.90;;;;;;5058682;28;20472;-60
2022/12/03 07:22:27;;;;;;;27.63;15.77;;;0.80;99.90;;;;;;5058229;28;20472;-61
2022/12/03 07:24:54;;;;;;;34.17;15.80;;;0.90;99.90;;;;;;5057758;28;20476;-61
2022/12/03 07:27:21;;;;;;;28.73;15.77;;;0.90;99.90;;;;;;5058818;28;20473;-61
2022/12/03 07:29:48;;;;;;;24.33;15.40;;;0.90;99.90;;;;;;5058251;28;20461;-61
2022/12/03 07:32:17;;;;;;;26.60;16.37;;;0.80;99.90;;;;;;5056404;28;20472;-60
2022/12/03 07:34:44;;;;;;;33.60;16.63;;;0.80;99.90;;;;;;5048798;28;20467;-61
2022/12/03 07:37:11;;;;;;;27.10;16.73;;;0.80;99.90;;;;;;5040114;28;20463;-61
2022/12/03 07:39:39;;;;;;;29.30;17.03;;;0.70;99.90;;;;;;5038078;28;20441;-61
2022/12/03 07:42:08;;;;;;;34.10;17.23;;;0.70;99.90;;;;;;5038039;28;20442;-61
2022/12/03 07:44:35;;;;;;;31.80;16.33;;;0.80;99.90;;;;;;5038008;28;20470;-62
2022/12/03 07:47:02;;;;;;;32.40;16.90;;;0.80;99.90;;;;;;5037792;28;20463;-61
2022/12/03 07:49:30;;;;;;;30.90;16.40;;;0.70;99.90;;;;;;5037983;28;20470;-61
2022/12/03 07:51:57;;;;;;;28.20;16.67;;;0.70;99.90;;;;;;5037682;28;20524;-61
2022/12/03 07:54:25;;;;;;;28.53;16.40;;;0.80;99.90;;;;;;5037506;28;20471;-61
2022/12/03 07:56:52;;;;;;;32.87;18.40;;;0.80;99.90;;;;;;5036874;28;20466;-61
2022/12/03 07:59:19;;;;;;;27.63;15.90;;;0.80;99.90;;;;;;5037641;28;20888;-61
2022/12/03 08:01:46;;;;;;;29.80;17.00;;;0.80;99.90;;;;;;5036928;28;20489;-61
2022/12/03 08:04:17;;;;;;;31.37;17.70;;;0.70;99.90;;;;;;5035992;28;20780;-61
2022/12/03 08:06:45;;;;;;;28.40;16.40;;;0.80;99.90;;;;;;5036652;28;20702;-61
2022/12/03 08:09:13;;;;;;;30.70;17.10;;;0.80;99.90;;;;;;5036660;28;20477;-61
2022/12/03 08:11:40;;;;;;;30.67;16.37;;;0.80;99.90;;;;;;5036528;28;20438;-61
2022/12/03 08:14:12;;;;;;;33.20;18.70;;;0.70;99.90;;;;;;5036426;28;20519;-61
2022/12/03 08:16:40;;;;;;;27.77;16.23;;;0.80;99.90;;;;;;5036870;28;20441;-61
2022/12/03 08:19:10;;;;;;;31.20;16.50;;;0.70;99.90;;;;;;5040280;28;20730;-61
2022/12/03 08:21:38;;;;;;;28.20;17.87;;;0.80;99.90;;;;;;5039742;28;20466;-61
2022/12/03 08:24:13;;;;;;;27.07;16.00;;;0.80;99.90;;;;;;5043850;28;20761;-61
2022/12/03 08:26:42;;;;;;;26.63;17.63;;;0.80;99.90;;;;;;5059350;28;20496;-61
2022/12/03 08:29:10;;;;;;;31.77;16.10;;;0.90;99.90;;;;;;5058642;28;20725;-61
2022/12/03 08:31:38;;;;;;;32.50;17.93;;;0.80;99.90;;;;;;5058046;28;20465;-61
2022/12/03 08:34:17;;;;;;;31.77;17.03;;;0.80;99.90;;;;;;5058049;28;20436;-61
2022/12/03 08:36:45;;;;;;;32.80;18.00;;;0.90;99.90;;;;;;5059719;28;20455;-61
2022/12/03 08:39:28;;;;;;;29.53;17.00;;;1.00;99.90;;;;;;5059287;28;20734;-61
2022/12/03 08:44:45;;;;;;;33.87;18.53;;;0.90;99.90;;;;;;5060325;28;20948;-61
2022/12/03 08:47:16;;;;;;;28.90;17.60;;;0.90;99.90;;;;;;5060388;28;20923;-62
2022/12/03 08:49:47;;;;;;;30.17;17.30;;;0.90;99.90;;;;;;5059260;28;20768;-62
2022/12/03 08:52:18;;;;;;;29.70;17.17;;;1.00;99.90;;;;;;5060082;28;20487;-61
2022/12/03 08:54:51;;;;;;;28.90;16.23;;;1.00;99.90;;;;;;5040942;28;20469;-62
2022/12/03 08:57:25;;;;;;;35.73;17.97;;;1.10;99.90;;;;;;5040696;28;20470;-62
2022/12/03 08:59:56;;;;;;;27.20;15.97;;;1.20;99.90;;;;;;5041028;28;20486;-62
2022/12/03 09:02:30;;;;;;;28.23;16.73;;;1.20;99.90;;;;;;5041765;28;20459;-62
2022/12/03 09:04:57;;;;;;;28.80;17.33;;;1.20;99.90;;;;;;5041229;28;20449;-62
2022/12/03 09:07:24;;;;;;;28.73;16.20;;;1.30;99.90;;;;;;5041511;28;20440;-62
2022/12/03 09:09:53;;;;;;;27.77;15.63;;;1.40;99.90;;;;;;5041171;28;20482;-61
2022/12/03 09:12:20;;;;;;;26.70;16.87;;;1.40;99.90;;;;;;5041496;28;20459;-61
2022/12/03 09:14:47;;;;;;;27.53;16.60;;;1.50;99.90;;;;;;5040878;28;20752;-61
2022/12/03 09:17:14;;;;;;;26.20;15.10;;;1.50;99.90;;;;;;5040631;28;20455;-61
2022/12/03 09:19:43;;;;;;;24.20;15.03;;;1.50;99.90;;;;;;5058474;28;20477;-61
2022/12/03 09:22:12;;;;;;;27.20;16.40;;;1.50;99.90;;;;;;5060270;28;20462;-61
2022/12/03 09:24:39;;;;;;;28.90;17.37;;;1.40;99.90;;;;;;5059461;28;20463;-61
2022/12/03 09:27:07;;;;;;;25.87;16.50;;;1.40;99.90;;;;;;5059583;28;20493;-61
2022/12/03 09:29:34;;;;;;;30.87;17.23;;;1.40;99.90;;;;;;5055579;28;20433;-61
2022/12/03 09:32:01;;;;;;;31.63;17.40;;;1.40;99.90;;;;;;5059411;28;20461;-61
2022/12/03 09:34:29;;;;;;;23.87;15.10;;;1.30;99.90;;;;;;5059428;28;20462;-61
2022/12/03 09:36:56;;;;;;;29.43;16.40;;;1.30;99.90;;;;;;5055379;28;20432;-59
2022/12/03 09:39:23;;;;;;;25.43;16.60;;;1.30;99.90;;;;;;5057433;28;20740;-61
2022/12/03 09:41:50;;;;;;;24.00;16.40;;;1.30;99.90;;;;;;5056357;28;20457;-60
2022/12/03 09:44:19;;;;;;;25.77;16.10;;;1.30;99.90;;;;;;5055588;28;20454;-58
2022/12/03 09:46:47;;;;;;;25.63;16.27;;;1.30;99.90;;;;;;5056624;28;21004;-61
2022/12/03 09:49:18;;;;;;;28.70;16.80;;;1.30;99.90;;;;;;5056134;28;20755;-61
2022/12/03 09:51:46;;;;;;;29.83;17.63;;;1.30;99.90;;;;;;5056936;28;20461;-61
2022/12/03 09:54:22;;;;;;;26.00;16.53;;;1.40;99.90;;;;;;5056852;28;20701;-61
2022/12/03 09:56:50;;;;;;;30.10;16.13;;;1.30;99.90;;;;;;5059049;28;20461;-62
2022/12/03 09:59:18;;;;;;;26.27;15.73;;;1.30;99.90;;;;;;5059331;28;20461;-62
2022/12/03 10:01:45;;;;;;;29.23;19.10;;;1.30;99.90;;;;;;5058472;28;20459;-62
2022/12/03 10:04:13;;;;;;;26.23;17.87;;;1.30;99.90;;;;;;5058657;28;20859;-63
2022/12/03 10:06:40;;;;;;;25.80;14.80;;;1.40;99.90;;;;;;5058842;28;20513;-63
2022/12/03 10:09:11;;;;;;;24.80;15.70;;;1.50;99.90;;;;;;5058745;28;20895;-63
2022/12/03 10:11:38;;;;;;;27.30;15.80;;;1.50;99.90;;;;;;5056766;28;20462;-63
2022/12/03 10:14:06;;;;;;;28.00;16.67;;;1.60;99.90;;;;;;5058369;28;20433;-64
2022/12/03 10:16:35;;;;;;;27.53;16.00;;;1.60;99.90;;;;;;5058826;28;20458;-64
2022/12/03 10:19:03;;;;;;;25.53;14.97;;;1.60;99.90;;;;;;5055656;28;20450;-65
2022/12/03 10:21:32;;;;;;;24.43;15.70;;;1.80;99.90;;;;;;5058437;28;20481;-65
2022/12/03 10:24:20;;;;;;;25.00;16.43;;;1.70;99.90;;;;;;5059213;28;20513;-65
2022/12/03 10:26:49;;;;;;;25.80;16.60;;;1.80;99.90;;;;;;5057135;28;21039;-65
2022/12/03 10:29:19;;;;;;;24.07;15.67;;;1.80;99.90;;;;;;5056804;28;20476;-65
2022/12/03 10:31:56;;;;;;;26.90;16.57;;;1.70;99.90;;;;;;5056889;28;20455;-65
2022/12/03 10:34:29;;;;;;;24.47;15.20;;;1.70;99.90;;;;;;5057119;28;20485;-65
2022/12/03 10:37:15;;;;;;;26.07;15.90;;;1.60;99.90;;;;;;5056005;28;20459;-66
2022/12/03 10:39:54;;;;;;;23.20;15.47;;;1.60;99.90;;;;;;5054497;28;20437;-66
2022/12/03 10:42:21;;;;;;;25.97;16.40;;;1.70;99.90;;;;;;5056347;28;20462;-67
2022/12/03 10:44:52;;;;;;;28.57;16.30;;;1.80;99.90;;;;;;5057614;28;20520;-66
2022/12/03 10:47:23;;;;;;;26.97;16.37;;;1.80;99.90;;;;;;5058020;28;20533;-66
2022/12/03 10:50:02;;;;;;;23.13;14.90;;;1.80;99.90;;;;;;5058052;28;20895;-66
2022/12/03 10:52:30;;;;;;;27.73;16.27;;;1.80;99.90;;;;;;5056913;28;20624;-66
2022/12/03 10:54:57;;;;;;;29.13;16.47;;;1.80;99.90;;;;;;5057763;28;20494;-66
2022/12/03 10:57:24;;;;;;;26.10;16.50;;;1.90;99.90;;;;;;5058097;28;20772;-66
2022/12/03 10:59:51;;;;;;;27.33;16.17;;;1.80;99.90;;;;;;5054166;28;20463;-66
2022/12/03 11:02:22;;;;;;;23.27;15.70;;;1.80;99.90;;;;;;5037931;28;20518;-66
2022/12/03 11:04:50;;;;;;;26.80;16.50;;;1.90;99.90;;;;;;5043514;28;20469;-66
2022/12/03 11:07:19;;;;;;;26.87;17.10;;;1.90;99.90;;;;;;5057641;28;20497;-65
2022/12/03 11:09:48;;;;;;;28.50;16.60;;;2.00;99.90;;;;;;5057269;28;20469;-65
2022/12/03 11:12:33;;;;;;;24.73;17.00;;;2.00;99.90;;;;;;5034810;28;20446;-65
2022/12/03 11:15:06;;;;;;;25.90;17.40;;;2.10;99.90;;;;;;5057563;28;20857;-65
2022/12/03 11:17:43;;;;;;;22.60;14.83;;;2.10;99.90;;;;;;5057196;28;20875;-65
2022/12/03 11:20:33;;;;;;;25.20;15.50;;;2.00;99.90;;;;;;5057607;28;20734;-65
2022/12/03 11:23:00;;;;;;;24.53;16.20;;;2.10;99.90;;;;;;5057336;28;20505;-65
2022/12/03 11:25:55;;;;;;;24.93;16.70;;;2.10;99.90;;;;;;5057305;28;20489;-64
2022/12/03 11:28:52;;;;;;;24.30;15.97;;;2.00;99.90;;;;;;5056997;28;20520;-65
2022/12/03 11:31:40;;;;;;;23.70;16.07;;;2.00;99.90;;;;;;5056651;28;20440;-64
2022/12/03 11:34:40;;;;;;;26.97;16.60;;;2.00;99.90;;;;;;5054547;28;20469;-64
2022/12/03 11:37:26;;;;;;;24.53;15.60;;;2.00;99.90;;;;;;5054924;28;20498;-64
2022/12/03 11:40:18;;;;;;;24.73;14.73;;;2.10;99.90;;;;;;5045780;28;20869;-65
2022/12/03 11:42:47;;;;;;;21.13;15.07;;;2.20;99.90;;;;;;5041980;28;20934;-64
2022/12/03 11:45:22;;;;;;;25.87;16.43;;;2.10;99.90;;;;;;5054914;28;20487;-64
2022/12/03 11:48:05;;;;;;;23.87;16.60;;;2.20;99.90;;;;;;5056631;28;20798;-64
2022/12/03 11:50:44;;;;;;;28.37;16.93;;;2.20;99.90;;;;;;5056407;28;20441;-64
2022/12/03 11:53:21;;;;;;;24.57;17.10;;;2.20;99.90;;;;;;5057706;28;20437;-64
2022/12/03 11:55:57;;;;;;;25.03;17.37;;;2.20;99.90;;;;;;5056917;28;20452;-64
2022/12/03 11:58:27;;;;;;;26.20;17.30;;;2.30;99.90;;;;;;5059740;28;20448;-64
2022/12/03 12:01:13;;;;;;;26.03;16.97;;;2.30;99.90;;;;;;5060000;28;20462;-63
2022/12/03 12:03:44;;;;;;;24.27;15.50;;;2.40;99.90;;;;;;5057602;28;20757;-64
2022/12/03 12:06:20;;;;;;;24.80;16.87;;;2.20;50.90;;;;;;5050497;28;20488;-64
2022/12/03 12:09:19;;;;;;;25.23;17.17;;;2.20;99.90;;;;;;5048893;28;20782;-63
2022/12/03 12:11:47;;;;;;;27.83;16.27;;;2.20;1.00;;;;;;5041314;28;20826;-64
2022/12/03 12:14:27;;;;;;;26.97;17.30;;;2.30;1.00;;;;;;5040731;28;20463;-63
2022/12/03 12:17:25;;;;;;;25.27;16.10;;;2.30;1.00;;;;;;5040903;28;20463;-64
2022/12/03 12:20:19;;;;;;;25.63;16.90;;;2.40;99.90;;;;;;5040677;28;20470;-63
2022/12/03 12:23:28;;;;;;;26.57;16.30;;;2.40;99.90;;;;;;5041017;28;20879;-63
2022/12/03 12:26:06;;;;;;;26.50;16.57;;;2.40;99.90;;;;;;5040082;28;20498;-63
2022/12/03 12:28:38;;;;;;;23.80;16.70;;;2.50;99.90;;;;;;5040447;28;20520;-63
2022/12/03 12:31:12;;;;;;;23.97;15.67;;;2.50;1.00;;;;;;5040546;28;20474;-62
2022/12/03 12:33:39;;;;;;;24.90;16.03;;;2.50;1.00;;;;;;5039973;28;20438;-62
2022/12/03 12:36:11;;;;;;;24.70;16.73;;;2.40;99.90;;;;;;5040282;28;20470;-62
2022/12/03 12:38:43;;;;;;;25.23;15.90;;;2.50;1.00;;;;;;5053103;28;20481;-61
2022/12/03 12:41:28;;;;;;;25.03;16.23;;;2.40;99.90;;;;;;5060041;28;20445;-62
2022/12/03 12:43:55;;;;;;;25.60;16.10;;;2.20;99.90;;;;;;5060116;28;20446;-62
2022/12/03 12:46:25;;;;;;;25.50;16.40;;;2.20;99.90;;;;;;5060015;28;20496;-62
2022/12/03 12:48:52;;;;;;;23.90;15.93;;;2.10;99.90;;;;;;5060135;28;20465;-62
2022/12/03 12:51:38;;;;;;;26.80;16.77;;;2.20;1.00;;;;;;5060148;28;20542;-62
2022/12/03 12:54:14;;;;;;;28.27;17.07;;;2.20;1.00;;;;;;5059739;28;20443;-62
2022/12/03 12:56:50;;;;;;;26.67;18.00;;;2.20;1.00;;;;;;5060202;28;20480;-62
2022/12/03 12:59:19;;;;;;;26.60;16.27;;;2.00;99.90;;;;;;5059886;28;20880;-62
2022/12/03 13:01:48;;;;;;;24.40;16.10;;;1.90;1.00;;;;;;5059790;28;20437;-62
2022/12/03 13:04:21;;;;;;;24.53;16.97;;;2.00;99.90;;;;;;5056865;28;20466;-62
2022/12/03 13:06:51;;;;;;;29.40;18.30;;;2.20;1.00;;;;;;5058030;28;20490;-62
2022/12/03 13:09:41;;;;;;;24.70;17.30;;;2.10;99.90;;;;;;5057603;28;20462;-62
2022/12/03 13:12:21;;;;;;;27.93;16.97;;;2.00;99.90;;;;;;5057942;28;20565;-62
2022/12/03 13:14:51;;;;;;;27.63;19.13;;;2.10;1.00;;;;;;5058009;28;20557;-62
2022/12/03 13:17:44;;;;;;;26.07;17.33;;;2.10;1.00;;;;;;5058575;28;20429;-62
2022/12/03 13:20:29;;;;;;;23.57;15.73;;;2.10;1.00;;;;;;5059262;28;20458;-62